createdAt,value
2023-01-09T06:41:00.783Z,98374.34
2023-01-09T07:11:48.813Z,98390.97
2023-01-09T07:52:09.813Z,98422.16
2023-01-09T07:54:36.573Z,98419.31
2023-01-09T07:57:03.193Z,98431.72
2023-01-09T07:59:29.714Z,98437.34
2023-01-09T08:01:56.337Z,98438.91
2023-01-09T08:04:23.025Z,98433.63
2023-01-09T08:06:49.474Z,98437.94
2023-01-09T08:09:15.915Z,98439.16
2023-01-09T08:11:42.480Z,98437.25
2023-01-09T08:14:08.912Z,98440.69
2023-01-09T08:16:35.315Z,98447.78
2023-01-09T08:19:01.860Z,98445.00
2023-01-09T08:21:28.302Z,98457.31
2023-01-09T08:23:54.704Z,98454.94
2023-01-09T08:26:21.142Z,98455.41
2023-01-09T08:28:48.316Z,98456.59
2023-01-09T08:31:15.181Z,98453.97
2023-01-09T08:33:41.703Z,98461.88
2023-01-09T08:36:08.538Z,98451.47
2023-01-09T08:38:34.967Z,98459.25
2023-01-09T08:41:21.477Z,98467.00
2023-01-09T08:44:06.555Z,98472.41
2023-01-09T08:46:51.819Z,98472.75
2023-01-09T08:49:18.344Z,98473.00
2023-01-09T08:51:44.788Z,98491.66
2023-01-09T08:54:11.525Z,98486.63
2023-01-09T08:56:37.935Z,98498.94
2023-01-09T08:59:04.565Z,98494.28
2023-01-09T09:01:31.038Z,98500.97
2023-01-09T09:03:57.545Z,98504.56
2023-01-09T09:06:23.995Z,98510.69
2023-01-09T09:08:50.449Z,98511.03
2023-01-09T09:11:16.825Z,98516.41
2023-01-09T09:13:43.305Z,98513.31
2023-01-09T09:16:09.801Z,98505.06
2023-01-09T09:18:36.204Z,98513.06
2023-01-09T09:21:02.608Z,98524.41
2023-01-09T09:23:28.992Z,98536.00
2023-01-09T09:25:55.401Z,98536.97
2023-01-09T09:28:21.886Z,98527.28
2023-01-09T09:30:48.461Z,98527.50
2023-01-09T09:33:14.900Z,98525.50
2023-01-09T09:35:41.413Z,98532.19
2023-01-09T09:38:07.919Z,98532.06
2023-01-09T09:40:51.748Z,98534.34
2023-01-09T09:43:51.004Z,98511.88
2023-01-09T09:46:27.218Z,98519.78
2023-01-09T09:48:59.452Z,98523.97
2023-01-09T09:52:03.049Z,98526.34
2023-01-09T09:54:35.833Z,98521.09
2023-01-09T09:57:03.786Z,98516.28
2023-01-09T09:59:33.551Z,98518.22
2023-01-09T10:02:09.041Z,98509.00
2023-01-09T10:04:39.916Z,98514.75
2023-01-09T10:07:18.759Z,98514.88
2023-01-09T10:09:54.262Z,98512.81
2023-01-09T10:12:41.842Z,98511.97
2023-01-09T10:15:21.067Z,98509.69
2023-01-09T10:17:47.327Z,98506.13
2023-01-09T10:20:34.911Z,98517.59
2023-01-09T10:23:25.615Z,98508.75
2023-01-09T10:26:00.732Z,98509.47
2023-01-09T10:29:04.610Z,98515.69
2023-01-09T10:31:49.249Z,98517.13
2023-01-09T10:34:26.956Z,98525.28
2023-01-09T10:37:08.994Z,98526.09
2023-01-09T10:39:40.018Z,98532.56
2023-01-09T10:42:11.180Z,98523.94
2023-01-09T10:44:48.400Z,98526.69
2023-01-09T10:47:22.219Z,98533.31
2023-01-09T10:49:50.198Z,98531.03
2023-01-09T10:52:18.320Z,98523.47
2023-01-09T10:54:51.959Z,98530.66
2023-01-09T10:57:53.158Z,98520.50
2023-01-09T11:00:23.499Z,98539.50
2023-01-09T11:02:52.047Z,98528.50
2023-01-09T11:05:25.257Z,98537.97
2023-01-09T11:08:13.069Z,98529.25
2023-01-09T11:10:54.569Z,98532.22
2023-01-09T11:13:29.756Z,98520.88
2023-01-09T11:16:00.883Z,98513.44
2023-01-09T11:18:27.438Z,98528.97
2023-01-09T11:20:54.007Z,98522.16
2023-01-09T11:23:33.536Z,98515.00
2023-01-09T11:26:01.363Z,98516.66
2023-01-09T11:28:28.578Z,98503.41
2023-01-09T11:30:59.899Z,98522.53
2023-01-09T11:33:31.816Z,98526.00
2023-01-09T11:36:14.759Z,98514.50
2023-01-09T11:38:53.293Z,98510.69
2023-01-09T11:41:22.694Z,98522.66
2023-01-09T11:43:51.366Z,98514.50
2023-01-09T11:46:33.047Z,98512.47
2023-01-09T11:49:02.189Z,98511.75
2023-01-09T11:51:34.172Z,98517.25
2023-01-09T11:54:17.243Z,98514.75
2023-01-09T11:56:44.222Z,98510.91
2023-01-09T11:59:17.001Z,98515.22
2023-01-09T12:02:06.137Z,98511.75
2023-01-09T12:04:41.178Z,98514.28
2023-01-09T12:07:29.064Z,98512.59
2023-01-09T12:10:13.878Z,98512.34
2023-01-09T12:12:57.766Z,98511.50
2023-01-09T12:15:29.443Z,98514.97
2023-01-09T12:18:23.544Z,98514.97
2023-01-09T12:21:39.108Z,98518.81
2023-01-09T12:24:15.890Z,98507.44
2023-01-09T12:27:04.165Z,98509.47
2023-01-09T12:29:47.170Z,98510.56
2023-01-09T12:32:22.516Z,98510.44
2023-01-09T12:34:56.529Z,98512.13
2023-01-09T12:37:53.936Z,98513.78
2023-01-09T12:40:46.963Z,98504.94
2023-01-09T12:43:25.904Z,98523.72
2023-01-09T12:46:10.573Z,98518.47
2023-01-09T12:48:46.104Z,98515.00
2023-01-09T12:51:35.499Z,98526.59
2023-01-09T12:54:25.709Z,98522.16
2023-01-09T12:56:58.213Z,98520.63
2023-01-09T12:59:32.508Z,98522.50
2023-01-09T13:02:05.450Z,98538.69
2023-01-09T13:04:35.820Z,98532.69
2023-01-09T13:07:05.904Z,98537.22
2023-01-09T13:09:39.816Z,98536.97
2023-01-09T13:12:25.250Z,98541.63
2023-01-09T13:14:56.340Z,98544.53
2023-01-09T13:17:42.614Z,98551.81
2023-01-09T13:20:21.816Z,98555.50
2023-01-09T13:22:50.792Z,98545.81
2023-01-09T13:25:44.585Z,98553.47
2023-01-09T13:28:40.915Z,98550.72
2023-01-09T13:31:24.370Z,98550.72
2023-01-09T13:33:54.110Z,98556.72
2023-01-09T13:36:28.297Z,98554.91
2023-01-09T13:38:58.847Z,98546.91
2023-01-09T13:41:45.868Z,98542.38
2023-01-09T13:44:18.145Z,98538.41
2023-01-09T13:46:47.222Z,98536.63
2023-01-09T13:49:35.393Z,98532.06
2023-01-09T13:52:06.665Z,98543.47
2023-01-09T13:54:51.501Z,98541.78
2023-01-09T13:57:17.864Z,98539.16
2023-01-09T13:59:45.749Z,98546.09
2023-01-09T14:02:41.730Z,98551.34
2023-01-09T14:05:15.775Z,98538.06
2023-01-09T14:07:44.406Z,98545.84
2023-01-09T14:10:23.572Z,98543.81
2023-01-09T14:12:50.888Z,98544.44
2023-01-09T14:15:29.341Z,98544.44
2023-01-09T14:18:00.580Z,98555.06
2023-01-09T14:20:43.866Z,98557.81
2023-01-09T14:23:35.615Z,98558.75
2023-01-09T14:26:17.081Z,98560.69
2023-01-09T14:28:43.858Z,98582.34
2023-01-09T14:31:11.089Z,98575.88
2023-01-09T14:33:37.576Z,98576.72
2023-01-09T14:36:10.193Z,98586.28
2023-01-09T14:38:49.361Z,98595.38
2023-01-09T14:41:43.641Z,98593.72
2023-01-09T14:44:22.362Z,98604.69
2023-01-09T14:46:49.739Z,98614.03
2023-01-09T14:49:28.087Z,98616.63
2023-01-09T14:51:55.269Z,98627.44
2023-01-09T14:54:31.815Z,98634.69
2023-01-09T14:56:58.387Z,98634.69
2023-01-09T14:59:24.809Z,98639.34
2023-01-09T15:01:55.121Z,98639.47
2023-01-09T15:04:31.496Z,98636.47
2023-01-09T15:06:58.873Z,98641.59
2023-01-09T15:09:30.624Z,98656.13
2023-01-09T15:12:02.166Z,98648.09
2023-01-09T15:14:32.570Z,98656.31
2023-01-09T15:17:00.263Z,98668.88
2023-01-09T15:19:27.197Z,98669.72
2023-01-09T15:22:04.778Z,98677.59
2023-01-09T15:24:34.266Z,98671.72
2023-01-09T15:27:09.580Z,98680.22
2023-01-09T15:29:36.262Z,98684.75
2023-01-09T15:32:06.028Z,98692.75
2023-01-09T15:34:33.640Z,98693.00
2023-01-09T15:37:00.931Z,98686.25
2023-01-09T15:39:38.478Z,98692.69
2023-01-09T15:42:28.083Z,98695.56
2023-01-09T15:44:54.774Z,98695.56
2023-01-09T15:47:23.946Z,98700.81
2023-01-09T15:49:50.828Z,98696.81
2023-01-09T15:52:18.298Z,98699.66
2023-01-09T15:54:46.839Z,98699.91
2023-01-09T15:57:25.575Z,98702.84
2023-01-09T15:59:52.860Z,98701.28
2023-01-09T16:02:38.893Z,98704.53
2023-01-09T16:08:23.527Z,98716.63
2023-01-09T16:11:00.263Z,98720.94
2023-01-09T16:13:30.231Z,98718.31
2023-01-09T16:15:59.200Z,98723.44
2023-01-09T16:18:57.187Z,98729.66
2023-01-09T16:22:02.973Z,98740.91
2023-01-09T16:37:57.239Z,98767.28
2023-01-09T16:47:35.396Z,98777.59
2023-01-09T16:50:02.688Z,98784.03
